sensor_id;sensor_type;location;lat;lon;timestamp;P1;durP1;ratioP1;P2;durP2;ratioP2
8640;SDS011;4358;42.100;25.222;2023-09-19T00:00:06;7.80;;;7.00;;
8640;SDS011;4358;42.100;25.222;2023-09-19T00:02:33;5.77;;;5.17;;
8640;SDS011;4358;42.100;25.222;2023-09-19T00:05:01;8.63;;;5.10;;
8640;SDS011;4358;42.100;25.222;2023-09-19T00:07:29;7.60;;;6.90;;
8640;SDS011;4358;42.100;25.222;2023-09-19T00:09:55;9.73;;;8.73;;
8640;SDS011;4358;42.100;25.222;2023-09-19T00:12:22;15.30;;;13.70;;
8640;SDS011;4358;42.100;25.222;2023-09-19T00:14:49;17.70;;;15.93;;
8640;SDS011;4358;42.100;25.222;2023-09-19T00:17:19;25.30;;;22.70;;
8640;SDS011;4358;42.100;25.222;2023-09-19T00:19:46;24.37;;;20.73;;
8640;SDS011;4358;42.100;25.222;2023-09-19T00:22:16;18.07;;;16.17;;
8640;SDS011;4358;42.100;25.222;2023-09-19T00:24:44;11.37;;;10.17;;
8640;SDS011;4358;42.100;25.222;2023-09-19T00:27:11;12.07;;;10.13;;
8640;SDS011;4358;42.100;25.222;2023-09-19T00:29:38;13.03;;;10.13;;
8640;SDS011;4358;42.100;25.222;2023-09-19T00:32:06;10.40;;;8.40;;
8640;SDS011;4358;42.100;25.222;2023-09-19T00:34:35;10.00;;;7.30;;
8640;SDS011;4358;42.100;25.222;2023-09-19T00:37:02;6.87;;;6.17;;
8640;SDS011;4358;42.100;25.222;2023-09-19T00:39:29;9.10;;;4.90;;
8640;SDS011;4358;42.100;25.222;2023-09-19T00:41:56;4.83;;;4.30;;
8640;SDS011;4358;42.100;25.222;2023-09-19T00:44:23;4.73;;;3.80;;
8640;SDS011;4358;42.100;25.222;2023-09-19T00:46:50;4.33;;;3.73;;
8640;SDS011;4358;42.100;25.222;2023-09-19T00:49:19;5.20;;;3.87;;
8640;SDS011;4358;42.100;25.222;2023-09-19T00:51:49;5.63;;;3.73;;
8640;SDS011;4358;42.100;25.222;2023-09-19T00:54:17;5.07;;;4.27;;
8640;SDS011;4358;42.100;25.222;2023-09-19T00:56:45;6.43;;;5.27;;
8640;SDS011;4358;42.100;25.222;2023-09-19T00:59:14;6.70;;;6.00;;
8640;SDS011;4358;42.100;25.222;2023-09-19T01:01:41;9.93;;;8.93;;
8640;SDS011;4358;42.100;25.222;2023-09-19T01:04:11;7.63;;;6.87;;
8640;SDS011;4358;42.100;25.222;2023-09-19T01:06:38;7.13;;;5.97;;
8640;SDS011;4358;42.100;25.222;2023-09-19T01:09:07;7.07;;;6.37;;
8640;SDS011;4358;42.100;25.222;2023-09-19T01:11:35;13.97;;;12.47;;
8640;SDS011;4358;42.100;25.222;2023-09-19T01:14:10;17.67;;;15.53;;
8640;SDS011;4358;42.100;25.222;2023-09-19T01:16:48;16.33;;;11.93;;
8640;SDS011;4358;42.100;25.222;2023-09-19T01:19:35;18.93;;;10.50;;
8640;SDS011;4358;42.100;25.222;2023-09-19T01:22:29;21.27;;;11.57;;
8640;SDS011;4358;42.100;25.222;2023-09-19T01:25:26;18.73;;;10.53;;
8640;SDS011;4358;42.100;25.222;2023-09-19T01:28:20;15.87;;;10.20;;
8640;SDS011;4358;42.100;25.222;2023-09-19T01:30:59;18.20;;;14.50;;
8640;SDS011;4358;42.100;25.222;2023-09-19T01:33:31;11.53;;;7.87;;
8640;SDS011;4358;42.100;25.222;2023-09-19T01:36:25;9.50;;;8.53;;
8640;SDS011;4358;42.100;25.222;2023-09-19T01:38:55;6.03;;;5.43;;
8640;SDS011;4358;42.100;25.222;2023-09-19T01:41:30;9.67;;;8.63;;
8640;SDS011;4358;42.100;25.222;2023-09-19T01:44:05;13.50;;;12.20;;
8640;SDS011;4358;42.100;25.222;2023-09-19T01:46:38;10.17;;;7.73;;
8640;SDS011;4358;42.100;25.222;2023-09-19T01:49:11;8.57;;;7.00;;
8640;SDS011;4358;42.100;25.222;2023-09-19T01:51:46;16.33;;;11.10;;
8640;SDS011;4358;42.100;25.222;2023-09-19T01:54:23;13.27;;;10.83;;
8640;SDS011;4358;42.100;25.222;2023-09-19T01:56:56;7.60;;;5.70;;
8640;SDS011;4358;42.100;25.222;2023-09-19T01:59:31;7.77;;;4.30;;
8640;SDS011;4358;42.100;25.222;2023-09-19T02:02:04;4.60;;;4.10;;
8640;SDS011;4358;42.100;25.222;2023-09-19T02:04:33;4.30;;;3.80;;
8640;SDS011;4358;42.100;25.222;2023-09-19T02:07:01;9.57;;;4.63;;
8640;SDS011;4358;42.100;25.222;2023-09-19T02:09:30;6.30;;;5.10;;
8640;SDS011;4358;42.100;25.222;2023-09-19T02:11:59;7.23;;;6.53;;
8640;SDS011;4358;42.100;25.222;2023-09-19T02:14:26;8.93;;;7.80;;
8640;SDS011;4358;42.100;25.222;2023-09-19T02:16:54;7.93;;;7.17;;
8640;SDS011;4358;42.100;25.222;2023-09-19T02:19:23;10.30;;;7.17;;
8640;SDS011;4358;42.100;25.222;2023-09-19T02:21:49;5.80;;;5.20;;
8640;SDS011;4358;42.100;25.222;2023-09-19T02:24:17;6.93;;;5.93;;
8640;SDS011;4358;42.100;25.222;2023-09-19T02:26:44;8.70;;;7.80;;
8640;SDS011;4358;42.100;25.222;2023-09-19T02:29:11;5.20;;;4.70;;
8640;SDS011;4358;42.100;25.222;2023-09-19T02:31:38;5.03;;;4.53;;
8640;SDS011;4358;42.100;25.222;2023-09-19T02:34:05;4.60;;;4.17;;
8640;SDS011;4358;42.100;25.222;2023-09-19T02:36:36;4.97;;;3.70;;
8640;SDS011;4358;42.100;25.222;2023-09-19T02:39:03;5.40;;;4.13;;
8640;SDS011;4358;42.100;25.222;2023-09-19T02:41:33;4.43;;;4.00;;
8640;SDS011;4358;42.100;25.222;2023-09-19T02:44:00;6.17;;;4.07;;
8640;SDS011;4358;42.100;25.222;2023-09-19T02:46:27;4.93;;;4.40;;
8640;SDS011;4358;42.100;25.222;2023-09-19T02:48:54;6.57;;;5.07;;
8640;SDS011;4358;42.100;25.222;2023-09-19T02:51:21;7.40;;;5.10;;
8640;SDS011;4358;42.100;25.222;2023-09-19T02:53:49;6.03;;;5.20;;
8640;SDS011;4358;42.100;25.222;2023-09-19T02:56:17;6.60;;;5.90;;
8640;SDS011;4358;42.100;25.222;2023-09-19T02:58:44;5.23;;;4.73;;
8640;SDS011;4358;42.100;25.222;2023-09-19T03:01:11;6.13;;;5.10;;
8640;SDS011;4358;42.100;25.222;2023-09-19T03:03:38;6.27;;;5.67;;
8640;SDS011;4358;42.100;25.222;2023-09-19T03:06:06;6.03;;;5.40;;
8640;SDS011;4358;42.100;25.222;2023-09-19T03:08:34;6.63;;;5.93;;
8640;SDS011;4358;42.100;25.222;2023-09-19T03:11:04;7.90;;;6.60;;
8640;SDS011;4358;42.100;25.222;2023-09-19T03:13:32;7.80;;;6.40;;
8640;SDS011;4358;42.100;25.222;2023-09-19T03:16:01;7.43;;;5.90;;
8640;SDS011;4358;42.100;25.222;2023-09-19T03:18:31;7.77;;;6.50;;
8640;SDS011;4358;42.100;25.222;2023-09-19T03:20:58;7.90;;;6.30;;
8640;SDS011;4358;42.100;25.222;2023-09-19T03:23:25;7.67;;;5.97;;
8640;SDS011;4358;42.100;25.222;2023-09-19T03:25:53;7.07;;;6.37;;
8640;SDS011;4358;42.100;25.222;2023-09-19T03:28:21;9.30;;;6.17;;
8640;SDS011;4358;42.100;25.222;2023-09-19T03:30:57;7.13;;;6.43;;
8640;SDS011;4358;42.100;25.222;2023-09-19T03:33:25;6.40;;;5.80;;
8640;SDS011;4358;42.100;25.222;2023-09-19T03:35:52;7.40;;;6.30;;
8640;SDS011;4358;42.100;25.222;2023-09-19T03:38:19;9.97;;;6.47;;
8640;SDS011;4358;42.100;25.222;2023-09-19T03:40:46;7.40;;;6.50;;
8640;SDS011;4358;42.100;25.222;2023-09-19T03:43:13;9.70;;;7.20;;
8640;SDS011;4358;42.100;25.222;2023-09-19T03:45:42;7.80;;;6.87;;
8640;SDS011;4358;42.100;25.222;2023-09-19T03:48:09;7.07;;;6.33;;
8640;SDS011;4358;42.100;25.222;2023-09-19T03:50:35;7.10;;;6.37;;
8640;SDS011;4358;42.100;25.222;2023-09-19T03:53:02;6.77;;;6.17;;
8640;SDS011;4358;42.100;25.222;2023-09-19T03:55:30;7.37;;;6.67;;
8640;SDS011;4358;42.100;25.222;2023-09-19T03:57:57;6.87;;;5.83;;
8640;SDS011;4358;42.100;25.222;2023-09-19T04:00:24;5.70;;;5.20;;
8640;SDS011;4358;42.100;25.222;2023-09-19T04:02:53;8.20;;;5.43;;
8640;SDS011;4358;42.100;25.222;2023-09-19T04:05:21;6.67;;;4.87;;
8640;SDS011;4358;42.100;25.222;2023-09-19T04:07:48;5.53;;;4.97;;
8640;SDS011;4358;42.100;25.222;2023-09-19T04:10:15;6.33;;;5.20;;
8640;SDS011;4358;42.100;25.222;2023-09-19T04:12:50;7.13;;;6.47;;
8640;SDS011;4358;42.100;25.222;2023-09-19T04:15:18;6.50;;;5.90;;
8640;SDS011;4358;42.100;25.222;2023-09-19T04:17:45;5.93;;;5.33;;
8640;SDS011;4358;42.100;25.222;2023-09-19T04:20:13;6.90;;;5.67;;
8640;SDS011;4358;42.100;25.222;2023-09-19T04:22:41;11.00;;;7.20;;
8640;SDS011;4358;42.100;25.222;2023-09-19T04:25:08;13.87;;;11.60;;
8640;SDS011;4358;42.100;25.222;2023-09-19T04:27:35;20.37;;;14.50;;
8640;SDS011;4358;42.100;25.222;2023-09-19T04:30:02;22.13;;;18.53;;
8640;SDS011;4358;42.100;25.222;2023-09-19T04:32:35;19.70;;;15.53;;
8640;SDS011;4358;42.100;25.222;2023-09-19T04:35:04;11.37;;;6.70;;
8640;SDS011;4358;42.100;25.222;2023-09-19T04:37:36;5.83;;;5.23;;
8640;SDS011;4358;42.100;25.222;2023-09-19T04:40:05;8.70;;;5.57;;
8640;SDS011;4358;42.100;25.222;2023-09-19T04:42:38;6.13;;;5.53;;
8640;SDS011;4358;42.100;25.222;2023-09-19T04:45:05;9.43;;;5.60;;
8640;SDS011;4358;42.100;25.222;2023-09-19T04:47:34;6.93;;;6.13;;
8640;SDS011;4358;42.100;25.222;2023-09-19T04:50:05;8.20;;;6.77;;
8640;SDS011;4358;42.100;25.222;2023-09-19T04:52:39;11.37;;;5.53;;
8640;SDS011;4358;42.100;25.222;2023-09-19T04:55:09;6.83;;;5.23;;
8640;SDS011;4358;42.100;25.222;2023-09-19T04:57:42;19.87;;;8.97;;
8640;SDS011;4358;42.100;25.222;2023-09-19T05:00:11;6.17;;;5.17;;
8640;SDS011;4358;42.100;25.222;2023-09-19T05:02:40;8.23;;;5.40;;
8640;SDS011;4358;42.100;25.222;2023-09-19T05:05:07;8.53;;;5.33;;
8640;SDS011;4358;42.100;25.222;2023-09-19T05:07:34;6.77;;;5.27;;
8640;SDS011;4358;42.100;25.222;2023-09-19T05:10:03;9.53;;;7.60;;
8640;SDS011;4358;42.100;25.222;2023-09-19T05:12:32;13.73;;;9.87;;
8640;SDS011;4358;42.100;25.222;2023-09-19T05:15:00;16.93;;;12.43;;
8640;SDS011;4358;42.100;25.222;2023-09-19T05:17:28;15.40;;;12.83;;
8640;SDS011;4358;42.100;25.222;2023-09-19T05:19:55;13.53;;;8.63;;
8640;SDS011;4358;42.100;25.222;2023-09-19T05:22:21;8.90;;;8.07;;
8640;SDS011;4358;42.100;25.222;2023-09-19T05:24:49;8.00;;;6.60;;
8640;SDS011;4358;42.100;25.222;2023-09-19T05:27:19;10.70;;;8.27;;
8640;SDS011;4358;42.100;25.222;2023-09-19T05:29:47;18.00;;;9.23;;
8640;SDS011;4358;42.100;25.222;2023-09-19T05:32:16;16.33;;;8.67;;
8640;SDS011;4358;42.100;25.222;2023-09-19T05:34:43;12.40;;;6.87;;
8640;SDS011;4358;42.100;25.222;2023-09-19T05:37:10;7.60;;;6.80;;
8640;SDS011;4358;42.100;25.222;2023-09-19T05:39:36;6.77;;;6.07;;
8640;SDS011;4358;42.100;25.222;2023-09-19T05:42:03;8.90;;;6.10;;
8640;SDS011;4358;42.100;25.222;2023-09-19T05:44:32;8.00;;;6.80;;
8640;SDS011;4358;42.100;25.222;2023-09-19T05:46:59;8.93;;;6.70;;
8640;SDS011;4358;42.100;25.222;2023-09-19T05:49:26;10.13;;;7.27;;
8640;SDS011;4358;42.100;25.222;2023-09-19T05:51:53;7.50;;;5.87;;
8640;SDS011;4358;42.100;25.222;2023-09-19T05:54:24;9.47;;;6.60;;
8640;SDS011;4358;42.100;25.222;2023-09-19T05:56:51;8.77;;;6.37;;
8640;SDS011;4358;42.100;25.222;2023-09-19T05:59:18;6.57;;;5.90;;
8640;SDS011;4358;42.100;25.222;2023-09-19T06:01:46;7.03;;;6.30;;
8640;SDS011;4358;42.100;25.222;2023-09-19T06:04:13;8.37;;;5.77;;
8640;SDS011;4358;42.100;25.222;2023-09-19T06:06:40;9.67;;;5.93;;
8640;SDS011;4358;42.100;25.222;2023-09-19T06:09:07;7.00;;;5.27;;
8640;SDS011;4358;42.100;25.222;2023-09-19T06:11:34;10.33;;;5.80;;
8640;SDS011;4358;42.100;25.222;2023-09-19T06:14:01;9.20;;;6.10;;
8640;SDS011;4358;42.100;25.222;2023-09-19T06:16:29;6.83;;;5.03;;
8640;SDS011;4358;42.100;25.222;2023-09-19T06:18:58;9.13;;;5.13;;
8640;SDS011;4358;42.100;25.222;2023-09-19T06:21:26;8.90;;;5.27;;
8640;SDS011;4358;42.100;25.222;2023-09-19T06:23:53;5.77;;;4.90;;
8640;SDS011;4358;42.100;25.222;2023-09-19T06:26:20;5.60;;;5.00;;
8640;SDS011;4358;42.100;25.222;2023-09-19T06:28:47;6.07;;;4.83;;
8640;SDS011;4358;42.100;25.222;2023-09-19T06:31:14;6.60;;;4.57;;
8640;SDS011;4358;42.100;25.222;2023-09-19T06:33:41;6.20;;;5.00;;
8640;SDS011;4358;42.100;25.222;2023-09-19T06:36:09;13.93;;;5.30;;
8640;SDS011;4358;42.100;25.222;2023-09-19T06:38:36;6.47;;;4.80;;
8640;SDS011;4358;42.100;25.222;2023-09-19T06:41:04;11.90;;;6.60;;
8640;SDS011;4358;42.100;25.222;2023-09-19T06:43:32;6.00;;;5.40;;
8640;SDS011;4358;42.100;25.222;2023-09-19T06:46:00;8.67;;;5.53;;
8640;SDS011;4358;42.100;25.222;2023-09-19T06:48:27;6.27;;;5.20;;
8640;SDS011;4358;42.100;25.222;2023-09-19T06:50:54;8.23;;;5.20;;
8640;SDS011;4358;42.100;25.222;2023-09-19T06:53:25;5.90;;;5.30;;
8640;SDS011;4358;42.100;25.222;2023-09-19T06:55:51;8.40;;;5.33;;
8640;SDS011;4358;42.100;25.222;2023-09-19T06:58:18;6.50;;;5.80;;
8640;SDS011;4358;42.100;25.222;2023-09-19T07:00:45;7.93;;;5.70;;
8640;SDS011;4358;42.100;25.222;2023-09-19T07:03:13;6.73;;;5.10;;
8640;SDS011;4358;42.100;25.222;2023-09-19T07:05:41;6.47;;;5.57;;
8640;SDS011;4358;42.100;25.222;2023-09-19T07:08:08;7.20;;;5.77;;
8640;SDS011;4358;42.100;25.222;2023-09-19T07:10:39;7.13;;;5.60;;
8640;SDS011;4358;42.100;25.222;2023-09-19T07:13:08;5.47;;;4.97;;
8640;SDS011;4358;42.100;25.222;2023-09-19T07:15:36;5.80;;;5.10;;
8640;SDS011;4358;42.100;25.222;2023-09-19T07:18:11;8.37;;;5.67;;
8640;SDS011;4358;42.100;25.222;2023-09-19T07:20:39;7.50;;;5.00;;
8640;SDS011;4358;42.100;25.222;2023-09-19T07:23:14;6.23;;;4.63;;
8640;SDS011;4358;42.100;25.222;2023-09-19T07:25:44;6.73;;;4.70;;
8640;SDS011;4358;42.100;25.222;2023-09-19T07:28:12;5.07;;;4.57;;
8640;SDS011;4358;42.100;25.222;2023-09-19T07:30:39;5.30;;;4.53;;
8640;SDS011;4358;42.100;25.222;2023-09-19T07:33:06;5.20;;;4.37;;
8640;SDS011;4358;42.100;25.222;2023-09-19T07:35:36;10.77;;;4.60;;
8640;SDS011;4358;42.100;25.222;2023-09-19T07:38:05;5.33;;;4.30;;
8640;SDS011;4358;42.100;25.222;2023-09-19T07:40:33;5.73;;;3.90;;
8640;SDS011;4358;42.100;25.222;2023-09-19T07:43:01;5.63;;;4.00;;
8640;SDS011;4358;42.100;25.222;2023-09-19T07:45:30;4.60;;;4.03;;
8640;SDS011;4358;42.100;25.222;2023-09-19T07:47:57;4.90;;;3.77;;
8640;SDS011;4358;42.100;25.222;2023-09-19T07:50:25;4.10;;;3.70;;
8640;SDS011;4358;42.100;25.222;2023-09-19T07:52:52;9.97;;;4.93;;
8640;SDS011;4358;42.100;25.222;2023-09-19T07:55:19;4.30;;;3.73;;
8640;SDS011;4358;42.100;25.222;2023-09-19T07:57:49;10.77;;;6.93;;
8640;SDS011;4358;42.100;25.222;2023-09-19T08:00:17;5.17;;;3.80;;
8640;SDS011;4358;42.100;25.222;2023-09-19T08:02:44;5.47;;;3.93;;
8640;SDS011;4358;42.100;25.222;2023-09-19T08:05:12;4.40;;;3.30;;
8640;SDS011;4358;42.100;25.222;2023-09-19T08:07:43;3.73;;;3.33;;
8640;SDS011;4358;42.100;25.222;2023-09-19T08:10:13;4.60;;;3.67;;
8640;SDS011;4358;42.100;25.222;2023-09-19T08:12:41;5.27;;;3.77;;
8640;SDS011;4358;42.100;25.222;2023-09-19T08:15:11;4.03;;;3.63;;
8640;SDS011;4358;42.100;25.222;2023-09-19T08:17:40;3.87;;;3.50;;
8640;SDS011;4358;42.100;25.222;2023-09-19T08:20:07;3.40;;;3.10;;
8640;SDS011;4358;42.100;25.222;2023-09-19T08:22:42;4.83;;;4.30;;
8640;SDS011;4358;42.100;25.222;2023-09-19T08:25:12;6.73;;;3.60;;
8640;SDS011;4358;42.100;25.222;2023-09-19T08:27:41;5.43;;;3.73;;
8640;SDS011;4358;42.100;25.222;2023-09-19T08:30:09;3.10;;;2.80;;
8640;SDS011;4358;42.100;25.222;2023-09-19T08:32:37;3.13;;;2.80;;
8640;SDS011;4358;42.100;25.222;2023-09-19T08:35:06;4.87;;;3.30;;
8640;SDS011;4358;42.100;25.222;2023-09-19T08:37:34;6.83;;;3.07;;
8640;SDS011;4358;42.100;25.222;2023-09-19T08:40:01;5.80;;;3.27;;
8640;SDS011;4358;42.100;25.222;2023-09-19T08:42:28;4.70;;;2.90;;
8640;SDS011;4358;42.100;25.222;2023-09-19T08:44:55;5.63;;;4.27;;
8640;SDS011;4358;42.100;25.222;2023-09-19T08:47:25;7.30;;;6.27;;
8640;SDS011;4358;42.100;25.222;2023-09-19T08:50:01;5.80;;;4.77;;
8640;SDS011;4358;42.100;25.222;2023-09-19T08:52:41;4.60;;;3.83;;
8640;SDS011;4358;42.100;25.222;2023-09-19T08:55:10;4.27;;;2.93;;
8640;SDS011;4358;42.100;25.222;2023-09-19T08:57:45;5.37;;;3.17;;
8640;SDS011;4358;42.100;25.222;2023-09-19T09:00:16;7.60;;;3.27;;
8640;SDS011;4358;42.100;25.222;2023-09-19T09:02:45;3.07;;;2.60;;
8640;SDS011;4358;42.100;25.222;2023-09-19T09:05:14;4.83;;;3.17;;
8640;SDS011;4358;42.100;25.222;2023-09-19T09:07:49;3.27;;;2.97;;
8640;SDS011;4358;42.100;25.222;2023-09-19T09:10:17;3.47;;;3.17;;
8640;SDS011;4358;42.100;25.222;2023-09-19T09:12:47;6.20;;;3.13;;
8640;SDS011;4358;42.100;25.222;2023-09-19T09:15:15;5.67;;;3.10;;
8640;SDS011;4358;42.100;25.222;2023-09-19T09:17:46;3.00;;;2.77;;
8640;SDS011;4358;42.100;25.222;2023-09-19T09:20:15;4.93;;;2.80;;
8640;SDS011;4358;42.100;25.222;2023-09-19T09:22:51;3.20;;;2.90;;
8640;SDS011;4358;42.100;25.222;2023-09-19T09:25:20;12.13;;;3.30;;
8640;SDS011;4358;42.100;25.222;2023-09-19T09:27:58;6.17;;;3.47;;
8640;SDS011;4358;42.100;25.222;2023-09-19T09:30:32;3.57;;;3.20;;
8640;SDS011;4358;42.100;25.222;2023-09-19T09:33:10;3.40;;;3.10;;
8640;SDS011;4358;42.100;25.222;2023-09-19T09:35:38;3.77;;;2.90;;
8640;SDS011;4358;42.100;25.222;2023-09-19T09:38:18;3.17;;;2.70;;
8640;SDS011;4358;42.100;25.222;2023-09-19T09:40:46;7.03;;;3.47;;
8640;SDS011;4358;42.100;25.222;2023-09-19T09:43:30;5.27;;;3.53;;
8640;SDS011;4358;42.100;25.222;2023-09-19T09:46:08;3.30;;;3.00;;
8640;SDS011;4358;42.100;25.222;2023-09-19T09:49:05;6.03;;;3.30;;
8640;SDS011;4358;42.100;25.222;2023-09-19T09:51:42;6.23;;;3.50;;
8640;SDS011;4358;42.100;25.222;2023-09-19T09:54:14;3.03;;;2.73;;
8640;SDS011;4358;42.100;25.222;2023-09-19T09:56:54;2.90;;;2.60;;
8640;SDS011;4358;42.100;25.222;2023-09-19T10:02:15;3.20;;;2.90;;
8640;SDS011;4358;42.100;25.222;2023-09-19T10:04:50;4.13;;;2.97;;
8640;SDS011;4358;42.100;25.222;2023-09-19T10:07:33;4.17;;;2.90;;
8640;SDS011;4358;42.100;25.222;2023-09-19T10:10:02;3.53;;;3.13;;
8640;SDS011;4358;42.100;25.222;2023-09-19T10:12:43;3.30;;;2.73;;
8640;SDS011;4358;42.100;25.222;2023-09-19T10:15:13;5.83;;;2.70;;
8640;SDS011;4358;42.100;25.222;2023-09-19T10:17:42;4.67;;;4.10;;
8640;SDS011;4358;42.100;25.222;2023-09-19T10:20:14;4.03;;;2.77;;
8640;SDS011;4358;42.100;25.222;2023-09-19T10:22:49;3.20;;;2.90;;
8640;SDS011;4358;42.100;25.222;2023-09-19T10:25:25;3.10;;;2.63;;
8640;SDS011;4358;42.100;25.222;2023-09-19T10:27:55;4.80;;;4.30;;
8640;SDS011;4358;42.100;25.222;2023-09-19T10:30:24;4.00;;;3.10;;
8640;SDS011;4358;42.100;25.222;2023-09-19T10:32:56;3.23;;;2.90;;
8640;SDS011;4358;42.100;25.222;2023-09-19T10:35:26;2.60;;;2.40;;
8640;SDS011;4358;42.100;25.222;2023-09-19T10:37:54;2.80;;;2.60;;
8640;SDS011;4358;42.100;25.222;2023-09-19T10:40:24;3.47;;;3.17;;
8640;SDS011;4358;42.100;25.222;2023-09-19T10:42:59;6.63;;;3.60;;
8640;SDS011;4358;42.100;25.222;2023-09-19T10:45:28;4.77;;;3.07;;
8640;SDS011;4358;42.100;25.222;2023-09-19T10:47:56;3.43;;;2.80;;
8640;SDS011;4358;42.100;25.222;2023-09-19T10:50:24;2.70;;;2.40;;
8640;SDS011;4358;42.100;25.222;2023-09-19T10:52:51;3.70;;;2.70;;
8640;SDS011;4358;42.100;25.222;2023-09-19T10:55:27;3.67;;;3.00;;
8640;SDS011;4358;42.100;25.222;2023-09-19T10:57:55;4.03;;;2.83;;
8640;SDS011;4358;42.100;25.222;2023-09-19T11:00:51;5.93;;;3.00;;
8640;SDS011;4358;42.100;25.222;2023-09-19T11:03:19;3.30;;;2.67;;
8640;SDS011;4358;42.100;25.222;2023-09-19T11:06:02;3.10;;;2.80;;
8640;SDS011;4358;42.100;25.222;2023-09-19T11:11:52;5.90;;;2.80;;
8640;SDS011;4358;42.100;25.222;2023-09-19T11:14:30;6.70;;;5.77;;
8640;SDS011;4358;42.100;25.222;2023-09-19T11:23:19;3.93;;;3.10;;
8640;SDS011;4358;42.100;25.222;2023-09-19T11:25:48;4.43;;;2.90;;
8640;SDS011;4358;42.100;25.222;2023-09-19T11:28:28;9.45;;;4.75;;
8640;SDS011;4358;42.100;25.222;2023-09-19T11:30:56;4.40;;;3.07;;
8640;SDS011;4358;42.100;25.222;2023-09-19T11:33:24;4.32;;;2.90;;
8640;SDS011;4358;42.100;25.222;2023-09-19T11:36:02;4.13;;;3.70;;
8640;SDS011;4358;42.100;25.222;2023-09-19T11:41:38;3.10;;;2.80;;
8640;SDS011;4358;42.100;25.222;2023-09-19T11:47:02;3.07;;;2.77;;
8640;SDS011;4358;42.100;25.222;2023-09-19T11:49:29;3.23;;;2.80;;
8640;SDS011;4358;42.100;25.222;2023-09-19T11:51:58;3.27;;;2.97;;
8640;SDS011;4358;42.100;25.222;2023-09-19T11:54:29;4.17;;;3.20;;
8640;SDS011;4358;42.100;25.222;2023-09-19T11:56:58;9.53;;;3.30;;
8640;SDS011;4358;42.100;25.222;2023-09-19T11:59:26;3.17;;;2.87;;
8640;SDS011;4358;42.100;25.222;2023-09-19T12:01:56;4.50;;;2.93;;
8640;SDS011;4358;42.100;25.222;2023-09-19T12:04:33;3.63;;;3.10;;
8640;SDS011;4358;42.100;25.222;2023-09-19T12:07:03;2.93;;;2.63;;
8640;SDS011;4358;42.100;25.222;2023-09-19T12:09:32;2.83;;;2.53;;
8640;SDS011;4358;42.100;25.222;2023-09-19T12:11:59;7.87;;;2.53;;
8640;SDS011;4358;42.100;25.222;2023-09-19T12:14:26;4.00;;;2.50;;
8640;SDS011;4358;42.100;25.222;2023-09-19T12:16:53;3.70;;;2.90;;
8640;SDS011;4358;42.100;25.222;2023-09-19T12:19:26;3.37;;;2.97;;
8640;SDS011;4358;42.100;25.222;2023-09-19T12:21:54;3.60;;;3.30;;
8640;SDS011;4358;42.100;25.222;2023-09-19T12:24:23;3.90;;;2.87;;
8640;SDS011;4358;42.100;25.222;2023-09-19T12:26:51;3.67;;;2.80;;
8640;SDS011;4358;42.100;25.222;2023-09-19T12:29:19;2.60;;;2.40;;
8640;SDS011;4358;42.100;25.222;2023-09-19T12:31:47;3.70;;;2.70;;
8640;SDS011;4358;42.100;25.222;2023-09-19T12:34:21;3.90;;;2.80;;
8640;SDS011;4358;42.100;25.222;2023-09-19T12:36:48;3.50;;;2.53;;
8640;SDS011;4358;42.100;25.222;2023-09-19T12:39:22;3.43;;;2.80;;
8640;SDS011;4358;42.100;25.222;2023-09-19T12:41:51;5.77;;;2.47;;
8640;SDS011;4358;42.100;25.222;2023-09-19T12:44:19;3.00;;;2.70;;
8640;SDS011;4358;42.100;25.222;2023-09-19T12:46:46;3.70;;;2.60;;
8640;SDS011;4358;42.100;25.222;2023-09-19T12:49:16;4.63;;;2.63;;
8640;SDS011;4358;42.100;25.222;2023-09-19T12:51:45;6.20;;;2.90;;
8640;SDS011;4358;42.100;25.222;2023-09-19T12:54:16;5.95;;;2.80;;
8640;SDS011;4358;42.100;25.222;2023-09-19T12:56:43;3.60;;;2.87;;
8640;SDS011;4358;42.100;25.222;2023-09-19T12:59:12;4.17;;;2.60;;
8640;SDS011;4358;42.100;25.222;2023-09-19T13:01:41;4.97;;;2.80;;
8640;SDS011;4358;42.100;25.222;2023-09-19T13:04:15;3.90;;;2.80;;
8640;SDS011;4358;42.100;25.222;2023-09-19T13:06:47;4.37;;;2.83;;
8640;SDS011;4358;42.100;25.222;2023-09-19T13:09:15;4.17;;;3.20;;
8640;SDS011;4358;42.100;25.222;2023-09-19T13:11:42;4.03;;;3.30;;
8640;SDS011;4358;42.100;25.222;2023-09-19T13:14:14;2.63;;;2.40;;
8640;SDS011;4358;42.100;25.222;2023-09-19T13:16:57;4.07;;;2.60;;
8640;SDS011;4358;42.100;25.222;2023-09-19T13:19:35;3.53;;;2.67;;
8640;SDS011;4358;42.100;25.222;2023-09-19T13:25:07;12.00;;;7.87;;
8640;SDS011;4358;42.100;25.222;2023-09-19T13:27:39;6.30;;;5.40;;
8640;SDS011;4358;42.100;25.222;2023-09-19T13:30:07;6.50;;;4.40;;
8640;SDS011;4358;42.100;25.222;2023-09-19T13:32:35;4.57;;;2.58;;
8640;SDS011;4358;42.100;25.222;2023-09-19T13:35:02;3.78;;;2.97;;
8640;SDS011;4358;42.100;25.222;2023-09-19T13:37:34;2.90;;;2.70;;
8640;SDS011;4358;42.100;25.222;2023-09-19T13:40:05;2.63;;;2.42;;
8640;SDS011;4358;42.100;25.222;2023-09-19T13:42:33;2.70;;;2.40;;
8640;SDS011;4358;42.100;25.222;2023-09-19T13:45:01;7.90;;;2.45;;
8640;SDS011;4358;42.100;25.222;2023-09-19T13:47:29;2.50;;;2.30;;
8640;SDS011;4358;42.100;25.222;2023-09-19T13:49:57;2.75;;;2.38;;
8640;SDS011;4358;42.100;25.222;2023-09-19T13:52:25;2.75;;;2.45;;
8640;SDS011;4358;42.100;25.222;2023-09-19T13:54:54;9.85;;;2.78;;
8640;SDS011;4358;42.100;25.222;2023-09-19T13:57:23;4.60;;;2.60;;
8640;SDS011;4358;42.100;25.222;2023-09-19T13:59:50;4.10;;;3.50;;
8640;SDS011;4358;42.100;25.222;2023-09-19T14:02:19;6.68;;;3.00;;
8640;SDS011;4358;42.100;25.222;2023-09-19T14:04:48;2.97;;;2.60;;
8640;SDS011;4358;42.100;25.222;2023-09-19T14:07:15;3.42;;;2.60;;
8640;SDS011;4358;42.100;25.222;2023-09-19T14:09:43;6.38;;;2.97;;
8640;SDS011;4358;42.100;25.222;2023-09-19T14:12:10;4.40;;;2.53;;
8640;SDS011;4358;42.100;25.222;2023-09-19T14:14:38;2.35;;;2.15;;
8640;SDS011;4358;42.100;25.222;2023-09-19T14:17:05;3.75;;;2.50;;
8640;SDS011;4358;42.100;25.222;2023-09-19T14:19:34;2.95;;;2.58;;
8640;SDS011;4358;42.100;25.222;2023-09-19T14:22:01;3.38;;;2.85;;
8640;SDS011;4358;42.100;25.222;2023-09-19T14:24:32;5.15;;;2.65;;
8640;SDS011;4358;42.100;25.222;2023-09-19T14:27:00;2.90;;;2.50;;
8640;SDS011;4358;42.100;25.222;2023-09-19T14:29:29;4.28;;;2.63;;
8640;SDS011;4358;42.100;25.222;2023-09-19T14:31:57;3.05;;;2.65;;
8640;SDS011;4358;42.100;25.222;2023-09-19T14:34:24;2.95;;;2.25;;
8640;SDS011;4358;42.100;25.222;2023-09-19T14:36:51;3.53;;;2.40;;
8640;SDS011;4358;42.100;25.222;2023-09-19T14:39:19;3.10;;;2.88;;
8640;SDS011;4358;42.100;25.222;2023-09-19T14:41:46;2.80;;;2.35;;
8640;SDS011;4358;42.100;25.222;2023-09-19T14:44:13;3.00;;;2.70;;
8640;SDS011;4358;42.100;25.222;2023-09-19T14:46:41;6.00;;;2.53;;
8640;SDS011;4358;42.100;25.222;2023-09-19T14:49:10;3.40;;;3.10;;
8640;SDS011;4358;42.100;25.222;2023-09-19T14:51:37;7.47;;;2.70;;
8640;SDS011;4358;42.100;25.222;2023-09-19T14:54:06;6.35;;;2.72;;
8640;SDS011;4358;42.100;25.222;2023-09-19T14:56:33;2.45;;;2.25;;
8640;SDS011;4358;42.100;25.222;2023-09-19T14:59:00;3.10;;;2.63;;
8640;SDS011;4358;42.100;25.222;2023-09-19T15:01:28;4.28;;;2.55;;
8640;SDS011;4358;42.100;25.222;2023-09-19T15:03:55;7.22;;;2.90;;
8640;SDS011;4358;42.100;25.222;2023-09-19T15:06:23;2.70;;;2.50;;
8640;SDS011;4358;42.100;25.222;2023-09-19T15:08:51;2.70;;;2.50;;
8640;SDS011;4358;42.100;25.222;2023-09-19T15:11:18;3.42;;;2.60;;
8640;SDS011;4358;42.100;25.222;2023-09-19T15:13:45;2.70;;;2.50;;
8640;SDS011;4358;42.100;25.222;2023-09-19T15:16:13;6.30;;;2.67;;
8640;SDS011;4358;42.100;25.222;2023-09-19T15:18:40;2.70;;;2.50;;
8640;SDS011;4358;42.100;25.222;2023-09-19T15:21:08;7.35;;;3.00;;
8640;SDS011;4358;42.100;25.222;2023-09-19T15:23:39;2.70;;;2.50;;
8640;SDS011;4358;42.100;25.222;2023-09-19T15:26:07;2.92;;;2.63;;
8640;SDS011;4358;42.100;25.222;2023-09-19T15:28:35;6.22;;;2.78;;
8640;SDS011;4358;42.100;25.222;2023-09-19T15:31:02;3.58;;;2.80;;
8640;SDS011;4358;42.100;25.222;2023-09-19T15:33:31;4.45;;;2.80;;